Terminal Aerodrome Forecast
Issued by NWS Louisville, KY

Home | Current Version | Previous Version | Text Only | Print | Product List | Glossary On
Versions: 1 2 3 4 5 6 7 8 9 10 11 12 13
000
FTUS43 KLMK 042109 AAA
TAFLEX
TAF AMD
KLEX 042109Z 0421/0518 VRB03KT P6SM VCSH FEW050
     FM050000 VRB03KT P6SM SKC
     FM050900 VRB03KT 4SM BR SKC
     FM051400 11005KT P6SM SCT250=

USA.gov is the U.S. government's official web portal to all federal, state and local government web resources and services.